createdAt,value
2022-10-09T00:01:28.752Z,12.55
2022-10-09T00:03:57.580Z,12.52
2022-10-09T00:06:28.640Z,14.13
2022-10-09T00:08:56.282Z,9.38
2022-10-09T00:11:30.450Z,14.27
2022-10-09T00:13:58.233Z,11.00
2022-10-09T00:16:26.294Z,12.27
2022-10-09T00:18:54.843Z,13.07
2022-10-09T00:21:26.201Z,10.93
2022-10-09T00:23:58.163Z,14.30
2022-10-09T00:26:26.821Z,9.52
2022-10-09T00:28:55.224Z,10.18
2022-10-09T00:31:23.313Z,13.95
2022-10-09T00:33:50.465Z,10.82
2022-10-09T00:36:24.459Z,11.50
2022-10-09T00:38:53.334Z,14.25
2022-10-09T00:41:25.810Z,9.85
2022-10-09T00:43:59.910Z,7.50
2022-10-09T00:46:48.267Z,14.25
2022-10-09T00:49:27.822Z,12.93
2022-10-09T00:51:58.910Z,14.57
2022-10-09T00:54:30.677Z,11.60
2022-10-09T00:56:57.857Z,11.88
2022-10-09T00:59:26.500Z,12.40
2022-10-09T01:01:54.181Z,11.48
2022-10-09T01:04:21.287Z,15.10
2022-10-09T01:07:38.896Z,10.32
2022-10-09T01:10:41.885Z,11.50
2022-10-09T01:13:28.392Z,14.60
2022-10-09T01:16:27.213Z,11.52
2022-10-09T01:19:45.799Z,16.67
2022-10-09T01:23:02.866Z,10.07
2022-10-09T01:25:44.827Z,15.57
2022-10-09T01:28:14.521Z,12.95
2022-10-09T01:30:42.642Z,12.75
2022-10-09T01:33:11.260Z,10.73
2022-10-09T01:35:40.869Z,12.68
2022-10-09T01:38:08.550Z,12.52
2022-10-09T01:40:37.040Z,10.27
2022-10-09T01:43:05.360Z,15.05
2022-10-09T01:45:42.256Z,10.52
2022-10-09T01:48:18.036Z,12.65
2022-10-09T01:50:52.751Z,14.63
2022-10-09T01:53:21.621Z,11.68
2022-10-09T01:56:15.098Z,10.55
2022-10-09T02:01:27.189Z,13.50
2022-10-09T02:03:58.791Z,15.00
2022-10-09T02:06:28.803Z,14.40
2022-10-09T02:08:56.353Z,13.75
2022-10-09T02:11:29.418Z,9.00
2022-10-09T02:16:37.539Z,12.20
2022-10-09T02:19:19.845Z,8.98
2022-10-09T02:22:01.361Z,13.65
2022-10-09T02:24:29.604Z,19.25
2022-10-09T02:26:58.219Z,13.07
2022-10-09T02:29:26.108Z,12.88
2022-10-09T02:31:53.199Z,11.18
2022-10-09T02:34:21.234Z,12.57
2022-10-09T02:36:49.909Z,10.98
2022-10-09T02:39:17.728Z,10.98
2022-10-09T02:41:44.670Z,11.13
2022-10-09T02:44:14.688Z,12.43
2022-10-09T02:46:41.819Z,10.98
2022-10-09T02:49:08.834Z,13.35
2022-10-09T02:51:35.917Z,11.57
2022-10-09T02:54:03.170Z,11.18
2022-10-09T02:56:30.520Z,10.75
2022-10-09T02:58:57.762Z,12.55
2022-10-09T03:01:25.053Z,12.63
2022-10-09T03:03:52.205Z,11.50
2022-10-09T03:06:24.115Z,12.52
2022-10-09T03:08:53.593Z,14.13
2022-10-09T03:11:23.332Z,11.77
2022-10-09T03:13:50.978Z,11.68
2022-10-09T03:16:24.437Z,11.07
2022-10-09T03:18:52.871Z,13.10
2022-10-09T03:21:26.787Z,13.50
2022-10-09T03:23:54.770Z,15.20
2022-10-09T03:26:25.819Z,13.02
2022-10-09T03:28:54.837Z,9.43
2022-10-09T03:34:12.972Z,12.15
2022-10-09T03:36:40.308Z,11.50
2022-10-09T03:39:07.308Z,15.52
2022-10-09T03:41:34.207Z,12.50
2022-10-09T03:44:01.179Z,11.43
2022-10-09T03:46:28.204Z,11.40
2022-10-09T03:48:55.361Z,10.18
2022-10-09T03:51:22.270Z,12.65
2022-10-09T03:53:50.018Z,9.63
2022-10-09T03:56:16.972Z,14.70
2022-10-09T03:58:43.885Z,12.95
2022-10-09T04:01:10.858Z,14.07
2022-10-09T04:03:37.881Z,12.32
2022-10-09T04:06:05.164Z,11.00
2022-10-09T04:08:32.083Z,12.43
2022-10-09T04:11:00.548Z,14.57
2022-10-09T04:13:27.821Z,11.90
2022-10-09T04:15:56.140Z,12.02
2022-10-09T04:18:24.571Z,11.68
2022-10-09T04:20:56.468Z,15.45
2022-10-09T04:23:27.036Z,11.82
2022-10-09T04:25:56.707Z,15.23
2022-10-09T04:28:24.212Z,14.77
2022-10-09T04:30:51.523Z,10.73
2022-10-09T04:33:19.216Z,11.07
2022-10-09T04:35:50.712Z,13.38
2022-10-09T04:38:17.744Z,9.07
2022-10-09T04:40:44.748Z,11.85
2022-10-09T04:43:11.612Z,14.20
2022-10-09T04:45:41.829Z,14.27
2022-10-09T04:48:08.755Z,11.00
2022-10-09T04:50:39.632Z,10.02
2022-10-09T04:53:06.552Z,10.55
2022-10-09T04:55:33.485Z,12.73
2022-10-09T04:58:00.351Z,10.43
2022-10-09T05:00:27.243Z,10.52
2022-10-09T05:02:54.141Z,12.93
2022-10-09T05:05:21.034Z,14.98
2022-10-09T05:07:47.920Z,11.77
2022-10-09T05:10:15.026Z,13.20
2022-10-09T05:12:42.047Z,14.18
2022-10-09T05:15:09.553Z,11.77
2022-10-09T05:17:36.560Z,16.08
2022-10-09T05:20:03.782Z,16.42
2022-10-09T05:22:30.702Z,12.43
2022-10-09T05:24:57.582Z,14.65
2022-10-09T05:27:24.585Z,14.95
2022-10-09T05:29:51.462Z,14.18
2022-10-09T05:32:18.382Z,16.70
2022-10-09T05:34:45.296Z,12.25
2022-10-09T05:37:12.257Z,12.95
2022-10-09T05:39:39.547Z,15.43
2022-10-09T05:42:06.500Z,14.88
2022-10-09T05:44:33.394Z,15.98
2022-10-09T05:47:00.306Z,12.65
2022-10-09T05:49:27.198Z,15.75
2022-10-09T05:51:55.876Z,11.60
2022-10-09T05:54:22.910Z,12.50
2022-10-09T05:56:49.855Z,12.63
2022-10-09T05:59:21.895Z,10.05
2022-10-09T06:01:51.616Z,14.10
2022-10-09T06:04:24.608Z,9.05
2022-10-09T06:06:52.058Z,14.00
2022-10-09T06:09:25.471Z,11.73
2022-10-09T06:11:54.711Z,11.40
2022-10-09T06:14:22.614Z,11.95
2022-10-09T06:16:50.295Z,12.15
2022-10-09T06:19:19.307Z,10.57
2022-10-09T06:21:47.618Z,12.23
2022-10-09T06:24:27.372Z,14.05
2022-10-09T06:26:56.966Z,13.32
2022-10-09T06:29:23.982Z,16.80
2022-10-09T06:31:50.885Z,15.20
2022-10-09T06:34:19.034Z,13.60
2022-10-09T06:36:45.911Z,13.02
2022-10-09T06:39:13.150Z,18.42
2022-10-09T06:41:40.339Z,12.93
2022-10-09T06:44:16.404Z,14.63
2022-10-09T06:46:48.445Z,9.93
2022-10-09T06:49:15.387Z,11.93
2022-10-09T06:51:42.350Z,12.93
2022-10-09T06:54:17.250Z,9.82
2022-10-09T06:56:44.659Z,10.27
2022-10-09T06:59:12.507Z,12.88
2022-10-09T07:01:39.645Z,17.00
2022-10-09T07:04:17.664Z,13.18
2022-10-09T07:06:47.810Z,12.10
2022-10-09T07:09:16.395Z,9.75
2022-10-09T07:11:49.002Z,10.75
2022-10-09T07:14:16.991Z,12.98
2022-10-09T07:16:47.122Z,12.13
2022-10-09T07:19:17.486Z,9.75
2022-10-09T07:21:48.327Z,11.68
2022-10-09T07:24:16.308Z,9.93
2022-10-09T07:26:46.216Z,13.18
2022-10-09T07:29:16.480Z,8.43
2022-10-09T07:31:44.119Z,12.55
2022-10-09T07:34:11.387Z,9.95
2022-10-09T07:36:38.352Z,7.60
2022-10-09T07:39:05.843Z,12.38
2022-10-09T07:41:33.336Z,6.90
2022-10-09T07:44:00.402Z,6.57
2022-10-09T07:46:33.268Z,10.35
2022-10-09T07:49:01.863Z,9.23
2022-10-09T07:51:30.452Z,7.55
2022-10-09T07:53:59.948Z,7.40
2022-10-09T07:56:34.248Z,10.05
2022-10-09T07:59:07.974Z,9.73
2022-10-09T08:01:36.173Z,10.52
2022-10-09T08:04:04.129Z,10.18
2022-10-09T08:06:31.918Z,13.00
2022-10-09T08:09:02.264Z,8.55
2022-10-09T08:11:30.239Z,10.30
2022-10-09T08:13:57.721Z,9.88
2022-10-09T08:16:26.620Z,7.18
2022-10-09T08:18:59.514Z,10.18
2022-10-09T08:21:28.461Z,9.10
2022-10-09T08:23:58.653Z,9.82
2022-10-09T08:26:29.052Z,7.85
2022-10-09T08:29:02.596Z,6.50
2022-10-09T08:31:31.886Z,9.48
2022-10-09T08:34:01.782Z,8.35
2022-10-09T08:36:29.918Z,6.45
2022-10-09T08:38:57.110Z,7.90
2022-10-09T08:41:33.220Z,10.70
2022-10-09T08:44:25.207Z,7.65
2022-10-09T08:47:20.350Z,13.73
2022-10-09T08:50:11.126Z,11.77
2022-10-09T08:52:56.357Z,7.80
2022-10-09T08:55:32.818Z,7.93
2022-10-09T08:58:06.924Z,10.00
2022-10-09T09:00:49.958Z,7.03
2022-10-09T09:03:43.457Z,6.00
2022-10-09T09:06:38.078Z,10.05
2022-10-09T09:09:38.582Z,10.07
2022-10-09T09:12:21.989Z,7.53
2022-10-09T09:18:37.629Z,6.72
2022-10-09T09:21:35.254Z,7.43
2022-10-09T09:24:13.776Z,5.43
2022-10-09T09:26:43.898Z,6.68
2022-10-09T09:29:15.224Z,7.93
2022-10-09T09:31:46.242Z,7.22
2022-10-09T09:34:23.544Z,7.28
2022-10-09T09:36:56.992Z,10.38
2022-10-09T09:40:24.234Z,5.22
2022-10-09T09:42:21.263Z,7.47
2022-10-09T09:45:22.259Z,9.82
2022-10-09T09:47:57.505Z,7.35
2022-10-09T09:50:48.566Z,8.40
2022-10-09T09:53:32.526Z,11.32
2022-10-09T09:56:00.051Z,5.60
2022-10-09T09:58:55.208Z,4.25
2022-10-09T10:01:25.905Z,5.93
2022-10-09T10:03:56.754Z,5.38
2022-10-09T10:06:31.792Z,5.20
2022-10-09T10:09:12.910Z,5.03
2022-10-09T10:12:01.611Z,5.13
2022-10-09T10:14:29.589Z,9.20
2022-10-09T10:17:00.030Z,11.00
2022-10-09T10:19:36.238Z,6.13
2022-10-09T10:22:23.633Z,6.68
2022-10-09T10:24:56.788Z,6.25
2022-10-09T10:30:10.872Z,6.63
2022-10-09T10:33:16.839Z,7.63
2022-10-09T10:35:44.920Z,6.05
2022-10-09T10:38:19.532Z,7.10
2022-10-09T10:40:52.743Z,3.17
2022-10-09T10:43:45.248Z,6.13
2022-10-09T10:46:36.933Z,3.92
2022-10-09T10:49:04.661Z,4.28
2022-10-09T10:52:08.823Z,5.75
2022-10-09T10:55:22.184Z,3.72
2022-10-09T10:58:32.416Z,6.32
2022-10-09T11:01:32.083Z,5.13
2022-10-09T11:04:22.785Z,6.10
2022-10-09T11:07:07.752Z,7.13
2022-10-09T11:10:19.110Z,4.10
2022-10-09T11:13:06.478Z,2.65
2022-10-09T11:15:57.467Z,6.00
2022-10-09T11:18:33.303Z,5.60
2022-10-09T11:21:13.148Z,7.60
2022-10-09T11:24:13.800Z,5.10
2022-10-09T11:26:52.842Z,3.40
2022-10-09T11:29:50.218Z,2.95
2022-10-09T11:32:27.285Z,4.95
2022-10-09T11:35:12.492Z,5.03
2022-10-09T11:37:43.822Z,11.82
2022-10-09T11:40:31.116Z,5.93
2022-10-09T11:43:25.202Z,7.43
2022-10-09T11:46:11.418Z,7.10
2022-10-09T11:48:54.768Z,3.65
2022-10-09T11:53:53.595Z,7.13
2022-10-09T11:56:32.528Z,6.93
2022-10-09T11:59:30.183Z,5.53
2022-10-09T12:02:23.784Z,5.10
2022-10-09T12:10:34.684Z,4.40
2022-10-09T12:13:06.504Z,6.50
2022-10-09T12:15:59.754Z,4.38
2022-10-09T12:18:46.862Z,4.25
2022-10-09T12:21:31.881Z,3.78
2022-10-09T12:24:00.120Z,8.15
2022-10-09T12:26:30.786Z,5.82
2022-10-09T12:29:04.809Z,3.47
2022-10-09T12:31:39.910Z,4.72
2022-10-09T12:34:24.088Z,5.07
2022-10-09T12:36:51.114Z,4.25
2022-10-09T12:39:24.348Z,5.95
2022-10-09T12:41:56.970Z,4.60
2022-10-09T12:44:35.775Z,5.95
2022-10-09T12:47:19.064Z,6.40
2022-10-09T12:49:59.524Z,3.35
2022-10-09T12:52:26.835Z,2.72
2022-10-09T12:54:54.082Z,5.82
2022-10-09T12:57:25.395Z,4.60
2022-10-09T12:59:55.580Z,7.25
2022-10-09T13:02:22.920Z,6.88
2022-10-09T13:05:00.564Z,2.78
2022-10-09T13:07:30.270Z,6.43
2022-10-09T13:10:20.284Z,7.07
2022-10-09T13:12:55.630Z,5.35
2022-10-09T13:15:37.136Z,6.43
2022-10-09T13:18:24.383Z,4.07
2022-10-09T13:21:22.330Z,6.93
2022-10-09T13:23:49.407Z,4.80
2022-10-09T13:26:26.868Z,4.53
2022-10-09T13:28:56.737Z,5.13
2022-10-09T13:31:24.050Z,3.95
2022-10-09T13:33:51.039Z,3.42
2022-10-09T13:36:19.932Z,5.07
2022-10-09T13:38:47.924Z,3.97
2022-10-09T13:41:20.849Z,5.38
2022-10-09T13:43:49.407Z,3.17
2022-10-09T13:46:16.577Z,6.55
2022-10-09T13:48:43.591Z,3.78
2022-10-09T13:51:11.394Z,3.72
2022-10-09T13:53:38.527Z,6.60
2022-10-09T13:56:07.768Z,4.80
2022-10-09T13:58:35.104Z,7.07
2022-10-09T14:01:02.415Z,6.30
2022-10-09T14:03:29.523Z,5.53
2022-10-09T14:06:03.013Z,8.07
2022-10-09T14:08:30.696Z,6.72
2022-10-09T14:11:00.661Z,5.20
2022-10-09T14:13:28.791Z,5.80
2022-10-09T14:15:56.728Z,6.78
2022-10-09T14:18:23.842Z,5.47
2022-10-09T14:20:50.894Z,4.85
2022-10-09T14:23:17.806Z,5.55
2022-10-09T14:25:44.711Z,4.97
2022-10-09T14:28:11.642Z,4.53
2022-10-09T14:30:43.689Z,5.75
2022-10-09T14:33:12.413Z,5.53
2022-10-09T14:35:39.662Z,9.25
2022-10-09T14:38:06.588Z,7.88
2022-10-09T14:40:33.494Z,7.60
2022-10-09T14:43:00.821Z,7.65
2022-10-09T14:45:28.981Z,10.32
2022-10-09T14:47:56.791Z,5.38
2022-10-09T14:50:23.704Z,8.68
2022-10-09T14:52:50.921Z,7.53
2022-10-09T14:55:18.093Z,10.13
2022-10-09T14:57:45.322Z,5.18
2022-10-09T15:00:13.168Z,8.40
2022-10-09T15:02:40.254Z,6.93
2022-10-09T15:05:08.518Z,5.35
2022-10-09T15:07:35.586Z,7.03
2022-10-09T15:10:02.548Z,8.48
2022-10-09T15:12:29.455Z,5.72
2022-10-09T15:14:56.498Z,7.57
2022-10-09T15:17:23.365Z,12.25
2022-10-09T15:19:50.378Z,6.10
2022-10-09T15:22:17.407Z,7.30
2022-10-09T15:24:44.326Z,7.53
2022-10-09T15:27:11.283Z,7.93
2022-10-09T15:29:38.312Z,6.63
2022-10-09T15:32:05.242Z,7.30
2022-10-09T15:34:32.148Z,9.40
2022-10-09T15:36:59.036Z,6.13
2022-10-09T15:39:25.952Z,11.48
2022-10-09T15:41:52.886Z,8.38
2022-10-09T15:44:20.999Z,7.35
2022-10-09T15:46:49.452Z,7.72
2022-10-09T15:49:16.752Z,9.45
2022-10-09T15:51:44.198Z,9.55
2022-10-09T15:54:12.937Z,11.90
2022-10-09T15:56:41.368Z,8.48
2022-10-09T15:59:13.173Z,9.65
2022-10-09T16:01:40.432Z,10.88
2022-10-09T16:04:07.443Z,11.35
2022-10-09T16:06:34.408Z,11.10
2022-10-09T16:09:03.977Z,13.90
2022-10-09T16:11:31.482Z,14.48
2022-10-09T16:13:59.319Z,11.23
2022-10-09T16:16:27.809Z,14.77
2022-10-09T16:18:56.770Z,16.67
2022-10-09T16:21:28.057Z,20.25
2022-10-09T16:23:58.722Z,17.23
2022-10-09T16:26:29.384Z,21.92
2022-10-09T16:28:57.142Z,18.15
2022-10-09T16:31:30.398Z,18.15
2022-10-09T16:33:59.274Z,15.05
2022-10-09T16:36:27.054Z,14.05
2022-10-09T16:38:55.860Z,19.83
2022-10-09T16:41:24.283Z,19.95
2022-10-09T16:43:55.029Z,21.95
2022-10-09T16:46:25.288Z,16.38
2022-10-09T16:48:55.148Z,21.55
2022-10-09T16:51:29.414Z,13.13
2022-10-09T16:54:01.287Z,17.58
2022-10-09T16:56:37.120Z,13.60
2022-10-09T16:59:08.036Z,15.93
2022-10-09T17:01:37.875Z,11.45
2022-10-09T17:04:05.418Z,13.02
2022-10-09T17:06:32.396Z,15.07
2022-10-09T17:09:00.182Z,11.93
2022-10-09T17:11:32.355Z,12.57
2022-10-09T17:14:00.033Z,21.50
2022-10-09T17:16:31.392Z,17.27
2022-10-09T17:18:58.677Z,16.90
2022-10-09T17:21:29.318Z,13.05
2022-10-09T17:24:05.744Z,16.50
2022-10-09T17:26:33.037Z,13.38
2022-10-09T17:29:01.858Z,14.13
2022-10-09T17:31:30.190Z,21.20
2022-10-09T17:34:00.826Z,17.50
2022-10-09T17:36:33.317Z,16.90
2022-10-09T17:39:00.410Z,18.02
2022-10-09T17:41:28.314Z,21.10
2022-10-09T17:43:57.248Z,17.70
2022-10-09T17:46:26.752Z,14.20
2022-10-09T17:48:56.651Z,16.80
2022-10-09T17:51:29.548Z,14.45
2022-10-09T17:54:09.609Z,14.68
2022-10-09T17:56:39.378Z,12.93
2022-10-09T17:59:07.286Z,14.73
2022-10-09T18:01:34.859Z,13.05
2022-10-09T18:04:01.998Z,19.95
2022-10-09T18:06:33.226Z,15.00
2022-10-09T18:09:00.806Z,14.07
2022-10-09T18:11:28.524Z,16.40
2022-10-09T18:13:55.824Z,22.75
2022-10-09T18:16:35.258Z,19.77
2022-10-09T18:19:13.856Z,14.23
2022-10-09T18:21:45.261Z,11.82
2022-10-09T18:24:12.935Z,13.32
2022-10-09T18:26:40.584Z,14.30
2022-10-09T18:29:07.965Z,15.90
2022-10-09T18:31:35.590Z,14.05
2022-10-09T18:34:02.594Z,15.68
2022-10-09T18:36:31.778Z,20.67
2022-10-09T18:39:07.612Z,16.25
2022-10-09T18:41:35.694Z,21.00
2022-10-09T18:44:03.803Z,17.95
2022-10-09T18:46:42.715Z,18.05
2022-10-09T18:49:14.620Z,14.88
2022-10-09T18:51:44.558Z,18.75
2022-10-09T18:54:17.080Z,17.40
2022-10-09T18:56:45.396Z,16.05
2022-10-09T18:59:17.654Z,17.60
2022-10-09T19:01:44.758Z,16.60
2022-10-09T19:04:11.966Z,18.88
2022-10-09T19:06:43.065Z,22.50
2022-10-09T19:09:10.089Z,16.63
2022-10-09T19:11:37.047Z,16.02
2022-10-09T19:14:04.337Z,16.90
2022-10-09T19:16:33.979Z,17.80
2022-10-09T19:19:01.281Z,19.08
2022-10-09T19:21:28.513Z,18.45
2022-10-09T19:23:55.718Z,16.98
2022-10-09T19:26:23.310Z,15.52
2022-10-09T19:28:50.445Z,15.27
2022-10-09T19:31:17.560Z,18.20
2022-10-09T19:33:44.523Z,16.77
2022-10-09T19:36:14.362Z,14.23
2022-10-09T19:38:42.085Z,16.20
2022-10-09T19:41:15.570Z,14.23
2022-10-09T19:43:42.856Z,15.50
2022-10-09T19:46:17.519Z,17.40
2022-10-09T19:48:46.001Z,22.77
2022-10-09T19:51:22.311Z,19.70
2022-10-09T19:53:50.961Z,17.02
2022-10-09T19:56:26.170Z,18.67
2022-10-09T19:58:55.625Z,19.75
2022-10-09T20:01:26.508Z,16.52
2022-10-09T20:04:02.492Z,17.08
2022-10-09T20:06:31.028Z,18.10
2022-10-09T20:08:57.984Z,16.30
2022-10-09T20:11:26.752Z,21.10
2022-10-09T20:13:56.190Z,18.08
2022-10-09T20:16:25.152Z,15.02
2022-10-09T20:18:55.595Z,17.23
2022-10-09T20:21:22.668Z,16.25
2022-10-09T20:23:49.960Z,16.50
2022-10-09T20:26:20.812Z,20.23
2022-10-09T20:28:48.851Z,19.83
2022-10-09T20:31:19.840Z,18.48
2022-10-09T20:33:49.779Z,18.25
2022-10-09T20:36:37.448Z,14.35
2022-10-09T20:39:11.917Z,18.92
2022-10-09T20:41:40.787Z,15.38
2022-10-09T20:44:07.737Z,16.55
2022-10-09T20:46:38.000Z,19.67
2022-10-09T20:49:08.225Z,16.90
2022-10-09T20:51:37.020Z,16.13
2022-10-09T20:54:05.305Z,16.80
2022-10-09T20:56:34.100Z,18.85
2022-10-09T20:59:01.745Z,21.70
2022-10-09T21:01:29.083Z,20.25
2022-10-09T21:03:59.026Z,16.98
2022-10-09T21:06:26.531Z,15.20
2022-10-09T21:08:53.630Z,18.60
2022-10-09T21:11:24.101Z,16.38
2022-10-09T21:13:51.573Z,21.23
2022-10-09T21:16:22.512Z,22.92
2022-10-09T21:19:02.508Z,17.40
2022-10-09T21:21:31.152Z,21.90
2022-10-09T21:24:00.624Z,24.10
2022-10-09T21:26:30.371Z,22.80
2022-10-09T21:28:59.888Z,23.60
2022-10-09T21:31:30.832Z,19.15
2022-10-09T21:34:00.004Z,23.38
2022-10-09T21:36:55.823Z,22.17
2022-10-09T21:39:28.270Z,19.88
2022-10-09T21:41:55.495Z,23.25
2022-10-09T21:44:22.465Z,22.17
2022-10-09T21:46:49.398Z,19.98
2022-10-09T21:49:21.960Z,22.05
2022-10-09T21:51:49.650Z,22.10
2022-10-09T21:54:16.814Z,25.52
2022-10-09T21:56:43.852Z,24.85
2022-10-09T21:59:10.977Z,24.77
2022-10-09T22:01:38.192Z,22.70
2022-10-09T22:04:05.371Z,25.92
2022-10-09T22:06:32.302Z,23.20
2022-10-09T22:08:59.935Z,21.77
2022-10-09T22:11:27.134Z,18.77
2022-10-09T22:13:56.107Z,22.30
2022-10-09T22:16:23.526Z,23.17
2022-10-09T22:18:50.502Z,23.27
2022-10-09T22:21:18.310Z,22.63
2022-10-09T22:23:45.760Z,20.52
2022-10-09T22:26:17.845Z,19.70
2022-10-09T22:28:47.353Z,20.40
2022-10-09T22:31:21.779Z,20.85
2022-10-09T22:34:06.777Z,24.90
2022-10-09T22:36:34.264Z,24.52
2022-10-09T22:39:06.940Z,23.48
2022-10-09T22:41:35.969Z,22.02
2022-10-09T22:44:06.129Z,24.40
2022-10-09T22:46:37.644Z,22.45
2022-10-09T22:49:07.052Z,23.27
2022-10-09T22:51:34.961Z,20.77
2022-10-09T22:54:01.937Z,21.10
2022-10-09T22:56:36.579Z,23.63
2022-10-09T22:59:05.422Z,19.95
2022-10-09T23:01:42.553Z,24.90
2022-10-09T23:04:13.460Z,19.05
2022-10-09T23:06:42.306Z,23.23
2022-10-09T23:09:14.078Z,24.25
2022-10-09T23:11:42.229Z,22.65
2022-10-09T23:14:11.595Z,22.70
2022-10-09T23:16:39.428Z,19.08
2022-10-09T23:19:07.283Z,22.58
2022-10-09T23:21:36.535Z,21.10
2022-10-09T23:24:04.718Z,22.85
2022-10-09T23:26:33.849Z,19.88
2022-10-09T23:29:18.207Z,19.20
2022-10-09T23:31:46.410Z,21.33
2022-10-09T23:34:13.728Z,20.17
2022-10-09T23:36:41.307Z,21.00
2022-10-09T23:39:08.308Z,21.23
2022-10-09T23:41:35.736Z,18.83
2022-10-09T23:44:02.824Z,19.40
2022-10-09T23:46:35.555Z,24.02
2022-10-09T23:49:02.593Z,19.48
2022-10-09T23:51:30.094Z,21.13
2022-10-09T23:53:58.657Z,27.80
2022-10-09T23:56:29.822Z,26.33
2022-10-09T23:58:58.825Z,28.77
